createdAt,value
2023-03-11T00:00:13.404Z,23.62
2023-03-11T00:02:40.235Z,23.63
2023-03-11T00:05:07.039Z,23.56
2023-03-11T00:07:33.535Z,23.52
2023-03-11T00:09:59.840Z,23.49
2023-03-11T00:12:26.142Z,23.49
2023-03-11T00:14:52.464Z,23.46
2023-03-11T00:17:18.776Z,23.44
2023-03-11T00:19:45.086Z,23.43
2023-03-11T00:22:11.453Z,23.52
2023-03-11T00:24:37.849Z,23.42
2023-03-11T00:27:04.248Z,23.25
2023-03-11T00:29:30.778Z,23.10
2023-03-11T00:31:57.137Z,23.11
2023-03-11T00:34:23.497Z,23.10
2023-03-11T00:36:50.315Z,23.10
2023-03-11T00:39:16.626Z,23.08
2023-03-11T00:41:42.931Z,23.04
2023-03-11T00:44:09.253Z,23.04
2023-03-11T00:46:35.673Z,23.02
2023-03-11T00:49:02.069Z,23.00
2023-03-11T00:51:29.290Z,22.97
2023-03-11T00:53:55.603Z,22.94
2023-03-11T00:56:22.146Z,22.92
2023-03-11T00:58:48.460Z,22.92
2023-03-11T01:01:15.617Z,22.91
2023-03-11T01:03:41.948Z,22.91
2023-03-11T01:06:08.288Z,22.88
2023-03-11T01:08:34.600Z,22.85
2023-03-11T01:11:01.021Z,22.81
2023-03-11T01:13:27.700Z,22.78
2023-03-11T01:15:54.078Z,22.76
2023-03-11T01:18:20.576Z,22.73
2023-03-11T01:20:46.900Z,22.69
2023-03-11T01:23:13.215Z,22.67
2023-03-11T01:25:39.536Z,22.66
2023-03-11T01:28:06.457Z,22.63
2023-03-11T01:30:32.793Z,22.59
2023-03-11T01:32:59.114Z,22.57
2023-03-11T01:35:25.685Z,22.55
2023-03-11T01:37:52.860Z,22.59
2023-03-11T01:40:35.705Z,22.57
2023-03-11T01:43:02.168Z,22.56
2023-03-11T01:45:41.680Z,22.54
2023-03-11T01:48:08.440Z,22.51
2023-03-11T01:50:35.855Z,22.49
2023-03-11T01:53:02.888Z,22.46
2023-03-11T01:55:29.289Z,22.45
2023-03-11T01:57:55.615Z,22.42
2023-03-11T02:00:21.945Z,22.40
2023-03-11T02:02:49.459Z,22.37
2023-03-11T02:05:15.792Z,22.33
2023-03-11T02:07:42.117Z,22.33
2023-03-11T02:10:08.909Z,22.33
2023-03-11T02:12:35.479Z,22.35
2023-03-11T02:15:01.886Z,22.32
2023-03-11T02:17:28.283Z,22.30
2023-03-11T02:20:12.213Z,22.28
2023-03-11T02:22:39.837Z,22.26
2023-03-11T02:25:24.638Z,22.22
2023-03-11T02:27:51.714Z,22.20
2023-03-11T02:30:18.225Z,22.16
2023-03-11T02:32:44.715Z,22.15
2023-03-11T02:35:11.104Z,22.11
2023-03-11T02:37:37.429Z,22.10
2023-03-11T02:40:23.421Z,22.08
2023-03-11T02:42:50.164Z,22.08
2023-03-11T02:45:16.710Z,22.10
2023-03-11T02:47:43.043Z,22.11
2023-03-11T02:50:09.685Z,22.08
2023-03-11T02:52:36.044Z,22.07
2023-03-11T02:55:02.349Z,22.06
2023-03-11T02:57:28.672Z,22.02
2023-03-11T02:59:54.977Z,22.01
2023-03-11T03:02:21.299Z,21.99
2023-03-11T03:04:47.615Z,21.95
2023-03-11T03:07:13.943Z,21.92
2023-03-11T03:09:40.254Z,21.91
2023-03-11T03:12:06.690Z,21.86
2023-03-11T03:14:33.046Z,21.87
2023-03-11T03:16:59.521Z,21.88
2023-03-11T03:19:25.941Z,21.88
2023-03-11T03:21:52.275Z,21.90
2023-03-11T03:24:18.605Z,21.86
2023-03-11T03:26:44.929Z,21.85
2023-03-11T03:29:11.242Z,21.85
2023-03-11T03:31:38.103Z,21.81
2023-03-11T03:34:04.430Z,21.76
2023-03-11T03:36:30.760Z,21.74
2023-03-11T03:38:57.415Z,21.73
2023-03-11T03:41:23.750Z,21.72
2023-03-11T03:43:50.068Z,21.69
2023-03-11T03:46:16.526Z,21.69
2023-03-11T03:48:42.918Z,21.67
2023-03-11T03:51:09.928Z,21.67
2023-03-11T03:53:36.427Z,21.66
2023-03-11T03:56:03.902Z,21.67
2023-03-11T03:58:30.213Z,21.67
2023-03-11T04:00:57.192Z,21.66
2023-03-11T04:03:23.790Z,21.61
2023-03-11T04:05:50.127Z,21.59
2023-03-11T04:08:16.457Z,21.57
2023-03-11T04:10:42.781Z,21.55
2023-03-11T04:13:09.131Z,21.53
2023-03-11T04:15:37.249Z,21.51
2023-03-11T04:18:03.961Z,21.48
2023-03-11T04:20:30.275Z,21.46
2023-03-11T04:22:56.635Z,21.45
2023-03-11T04:25:22.956Z,21.41
2023-03-11T04:27:50.068Z,21.40
2023-03-11T04:30:16.429Z,21.38
2023-03-11T04:32:43.399Z,21.36
2023-03-11T04:35:09.793Z,21.34
2023-03-11T04:37:36.401Z,21.33
2023-03-11T04:40:03.547Z,21.32
2023-03-11T04:42:29.869Z,21.31
2023-03-11T04:44:56.245Z,21.34
2023-03-11T04:47:22.656Z,21.36
2023-03-11T04:49:48.988Z,21.37
2023-03-11T04:52:15.564Z,21.36
2023-03-11T04:54:41.890Z,21.33
2023-03-11T04:57:08.393Z,21.34
2023-03-11T04:59:34.702Z,21.32
2023-03-11T05:02:01.029Z,21.31
2023-03-11T05:04:27.471Z,21.30
2023-03-11T05:06:53.873Z,21.27
2023-03-11T05:09:20.184Z,21.25
2023-03-11T05:11:46.508Z,21.25
2023-03-11T05:14:12.828Z,21.23
2023-03-11T05:16:39.137Z,21.21
2023-03-11T05:19:25.416Z,21.19
2023-03-11T05:21:51.785Z,21.19
2023-03-11T05:24:18.087Z,21.19
2023-03-11T05:26:45.035Z,21.18
2023-03-11T05:29:12.648Z,21.17
2023-03-11T05:31:38.981Z,21.16
2023-03-11T05:34:05.312Z,21.14
2023-03-11T05:36:31.625Z,21.14
2023-03-11T05:38:58.087Z,21.10
2023-03-11T05:41:24.411Z,21.09
2023-03-11T05:43:50.748Z,21.08
2023-03-11T05:46:17.083Z,21.08
2023-03-11T05:48:43.429Z,21.05
2023-03-11T05:51:09.983Z,21.06
2023-03-11T05:53:36.329Z,21.10
2023-03-11T05:56:02.726Z,21.14
2023-03-11T05:58:29.149Z,21.13
2023-03-11T06:00:55.619Z,21.11
2023-03-11T06:03:21.943Z,21.10
2023-03-11T06:05:48.661Z,21.09
2023-03-11T06:08:14.982Z,21.09
2023-03-11T06:10:41.428Z,21.10
2023-03-11T06:13:07.760Z,21.09
2023-03-11T06:15:34.337Z,21.07
2023-03-11T06:18:00.908Z,21.06
2023-03-11T06:20:27.692Z,21.06
2023-03-11T06:22:54.027Z,21.04
2023-03-11T06:25:20.340Z,21.02
2023-03-11T06:27:51.444Z,21.02
2023-03-11T06:30:18.098Z,21.02
2023-03-11T06:32:45.322Z,20.99
2023-03-11T06:35:11.709Z,21.02
2023-03-11T06:37:38.061Z,21.02
2023-03-11T06:40:05.616Z,21.05
2023-03-11T06:42:31.949Z,21.02
2023-03-11T06:44:58.508Z,21.02
2023-03-11T06:47:24.836Z,21.02
2023-03-11T06:49:51.413Z,21.02
2023-03-11T06:52:17.720Z,21.01
2023-03-11T06:54:44.339Z,21.01
2023-03-11T06:57:10.665Z,21.01
2023-03-11T06:59:36.984Z,20.99
2023-03-11T07:02:03.929Z,20.99
2023-03-11T07:04:30.917Z,20.97
2023-03-11T07:06:57.243Z,20.96
2023-03-11T07:09:25.159Z,20.93
2023-03-11T07:11:52.052Z,20.94
2023-03-11T07:14:18.763Z,20.91
2023-03-11T07:16:45.326Z,20.91
2023-03-11T07:19:11.933Z,20.90
2023-03-11T07:21:38.244Z,20.90
2023-03-11T07:24:04.653Z,20.90
2023-03-11T07:26:31.083Z,20.91
2023-03-11T07:28:57.556Z,20.90
2023-03-11T07:31:24.810Z,20.90
2023-03-11T07:33:51.227Z,20.90
2023-03-11T07:36:18.665Z,20.86
2023-03-11T07:38:45.033Z,20.88
2023-03-11T07:41:11.579Z,20.86
2023-03-11T07:43:37.947Z,20.86
2023-03-11T07:46:11.392Z,20.93
2023-03-11T07:48:38.095Z,20.92
2023-03-11T07:51:04.369Z,20.93
2023-03-11T07:53:30.760Z,20.93
2023-03-11T07:55:59.907Z,20.92
2023-03-11T07:58:26.240Z,20.90
2023-03-11T08:00:52.589Z,20.91
2023-03-11T08:03:19.087Z,20.89
2023-03-11T08:05:45.411Z,20.88
2023-03-11T08:08:11.733Z,20.89
2023-03-11T08:10:38.228Z,20.93
2023-03-11T08:13:04.572Z,21.01
2023-03-11T08:15:30.906Z,21.06
2023-03-11T08:17:57.249Z,21.13
2023-03-11T08:20:23.561Z,21.22
2023-03-11T08:22:58.067Z,21.32
2023-03-11T08:25:24.804Z,21.36
2023-03-11T08:27:51.131Z,21.40
2023-03-11T08:30:17.737Z,21.44
2023-03-11T08:32:44.276Z,21.44
2023-03-11T08:35:10.641Z,21.34
2023-03-11T08:37:37.134Z,21.29
2023-03-11T08:40:03.725Z,21.38
2023-03-11T08:42:30.043Z,21.39
2023-03-11T08:44:56.383Z,21.39
2023-03-11T08:47:22.760Z,21.44
2023-03-11T08:49:49.162Z,21.51
2023-03-11T08:52:15.500Z,21.56
2023-03-11T08:54:42.636Z,21.60
2023-03-11T08:57:09.117Z,21.75
2023-03-11T08:59:36.199Z,21.99
2023-03-11T09:02:02.555Z,22.17
2023-03-11T09:04:28.926Z,22.37
2023-03-11T09:06:55.248Z,22.50
2023-03-11T09:09:21.570Z,22.57
2023-03-11T09:11:48.035Z,22.65
2023-03-11T09:14:14.367Z,22.77
2023-03-11T09:16:40.689Z,22.84
2023-03-11T09:19:07.526Z,22.88
2023-03-11T09:21:34.192Z,22.90
2023-03-11T09:24:00.819Z,23.08
2023-03-11T09:26:27.362Z,23.13
2023-03-11T09:28:53.712Z,23.40
2023-03-11T09:31:20.053Z,23.53
2023-03-11T09:33:46.931Z,23.45
2023-03-11T09:36:14.048Z,23.50
2023-03-11T09:38:40.647Z,23.57
2023-03-11T09:41:25.409Z,23.65
2023-03-11T09:44:07.215Z,23.66
2023-03-11T09:46:41.780Z,23.67
2023-03-11T09:49:23.473Z,23.69
2023-03-11T09:51:52.957Z,23.73
2023-03-11T09:54:19.493Z,23.80
2023-03-11T09:56:45.803Z,23.84
2023-03-11T09:59:15.827Z,23.90
2023-03-11T10:01:42.796Z,23.97
2023-03-11T10:04:20.180Z,24.01
2023-03-11T10:06:46.752Z,24.05
2023-03-11T10:09:34.034Z,24.04
2023-03-11T10:12:10.100Z,24.04
2023-03-11T10:14:39.918Z,24.04
2023-03-11T10:17:15.416Z,24.09
2023-03-11T10:19:47.692Z,24.10
2023-03-11T10:22:15.905Z,24.10
2023-03-11T10:24:45.956Z,24.14
2023-03-11T10:27:14.715Z,24.13
2023-03-11T10:29:53.064Z,24.12
2023-03-11T10:32:27.186Z,24.14
2023-03-11T10:35:04.754Z,24.15
2023-03-11T10:37:48.348Z,24.11
2023-03-11T10:40:26.560Z,24.06
2023-03-11T10:42:53.332Z,24.12
2023-03-11T10:45:20.917Z,24.16
2023-03-11T10:47:49.465Z,24.23
2023-03-11T10:50:16.066Z,24.26
2023-03-11T10:52:43.920Z,24.27
2023-03-11T10:55:11.684Z,24.25
2023-03-11T10:57:38.844Z,24.27
2023-03-11T11:00:17.203Z,24.29
2023-03-11T11:02:50.230Z,24.30
2023-03-11T11:05:22.709Z,24.37
2023-03-11T11:07:49.381Z,24.40
2023-03-11T11:10:19.920Z,24.39
2023-03-11T11:12:54.098Z,24.36
2023-03-11T11:15:24.129Z,24.36
2023-03-11T11:17:50.725Z,24.38
2023-03-11T11:20:17.537Z,24.41
2023-03-11T11:22:54.140Z,24.40
2023-03-11T11:25:30.703Z,24.37
2023-03-11T11:28:00.839Z,24.34
2023-03-11T11:30:27.217Z,24.35
2023-03-11T11:32:55.453Z,24.39
2023-03-11T11:35:23.118Z,24.41
2023-03-11T11:37:53.300Z,24.38
2023-03-11T11:40:25.639Z,24.31
2023-03-11T11:42:56.303Z,24.26
2023-03-11T11:45:24.347Z,24.18
2023-03-11T11:47:52.334Z,24.19
2023-03-11T11:50:24.779Z,24.15
2023-03-11T11:52:52.670Z,24.13
2023-03-11T11:55:25.741Z,24.18
2023-03-11T11:57:52.257Z,24.16
2023-03-11T12:00:24.277Z,24.11
2023-03-11T12:03:10.400Z,24.00
2023-03-11T12:05:40.031Z,23.95
2023-03-11T12:08:09.140Z,23.93
2023-03-11T12:11:01.708Z,23.95
2023-03-11T12:13:33.990Z,24.01
2023-03-11T12:16:05.846Z,24.05
2023-03-11T12:18:36.385Z,24.10
2023-03-11T12:21:06.517Z,24.14
2023-03-11T12:23:35.907Z,24.14
2023-03-11T12:26:03.573Z,24.18
2023-03-11T12:28:30.042Z,24.18
2023-03-11T12:30:58.016Z,24.21
2023-03-11T12:33:26.960Z,24.18
2023-03-11T12:35:55.805Z,24.23
2023-03-11T12:38:34.846Z,24.27
2023-03-11T12:41:05.109Z,24.30
2023-03-11T12:43:33.738Z,24.31
2023-03-11T12:46:06.809Z,24.20
2023-03-11T12:48:33.064Z,24.13
2023-03-11T12:50:59.716Z,24.01
2023-03-11T12:53:44.941Z,23.91
2023-03-11T12:56:15.898Z,23.90
2023-03-11T12:58:52.505Z,23.81
2023-03-11T13:01:30.077Z,23.77
2023-03-11T13:04:01.727Z,23.69
2023-03-11T13:06:36.973Z,23.64
2023-03-11T13:09:04.192Z,23.58
2023-03-11T13:11:33.504Z,23.52
2023-03-11T13:14:09.009Z,23.47
2023-03-11T13:16:35.780Z,23.44
2023-03-11T13:19:22.175Z,23.47
2023-03-11T13:21:48.530Z,23.43
2023-03-11T13:24:27.139Z,23.40
2023-03-11T13:26:59.647Z,23.38
2023-03-11T13:29:28.799Z,23.37
2023-03-11T13:32:01.277Z,23.36
2023-03-11T13:34:42.871Z,23.31
2023-03-11T13:37:28.371Z,23.28
2023-03-11T13:40:14.035Z,23.25
2023-03-11T13:42:42.729Z,23.26
2023-03-11T13:45:13.271Z,23.25
2023-03-11T13:47:40.045Z,23.26
2023-03-11T13:50:08.401Z,23.31
2023-03-11T13:52:43.817Z,23.31
2023-03-11T13:55:13.155Z,23.30
2023-03-11T13:57:39.468Z,23.25
2023-03-11T14:00:17.025Z,23.25
2023-03-11T14:02:47.424Z,23.22
2023-03-11T14:05:15.430Z,23.19
2023-03-11T14:07:42.001Z,23.13
2023-03-11T14:10:11.327Z,23.10
2023-03-11T14:12:37.852Z,23.07
2023-03-11T14:15:04.682Z,23.04
2023-03-11T14:17:31.000Z,23.03
2023-03-11T14:20:04.617Z,23.02
2023-03-11T14:22:31.367Z,23.03
2023-03-11T14:25:00.503Z,23.05
2023-03-11T14:27:26.821Z,23.03
2023-03-11T14:29:53.394Z,23.05
2023-03-11T14:32:27.409Z,23.03
2023-03-11T14:34:53.856Z,23.00
2023-03-11T14:37:32.116Z,23.00
2023-03-11T14:39:58.510Z,22.97
2023-03-11T14:42:28.088Z,22.94
2023-03-11T14:45:07.759Z,22.94
2023-03-11T14:47:36.151Z,22.95
2023-03-11T14:50:03.849Z,22.95
2023-03-11T14:52:30.113Z,22.93
2023-03-11T14:54:56.483Z,22.91
2023-03-11T14:57:24.471Z,22.91
2023-03-11T14:59:50.870Z,22.95
2023-03-11T15:02:27.195Z,22.91
2023-03-11T15:04:53.538Z,22.92
2023-03-11T15:07:19.844Z,22.94
2023-03-11T15:09:46.189Z,22.91
2023-03-11T15:12:29.813Z,22.81
2023-03-11T15:14:56.142Z,22.81
2023-03-11T15:17:34.735Z,22.78
2023-03-11T15:20:07.725Z,22.75
2023-03-11T15:22:33.967Z,22.73
2023-03-11T15:25:00.786Z,22.69
2023-03-11T15:27:33.830Z,22.67
2023-03-11T15:30:00.395Z,22.66
2023-03-11T15:32:29.946Z,22.62
2023-03-11T15:35:00.140Z,22.59
2023-03-11T15:37:26.533Z,22.57
2023-03-11T15:39:53.219Z,22.54
2023-03-11T15:42:24.334Z,22.51
2023-03-11T15:45:09.737Z,22.49
2023-03-11T15:47:36.129Z,22.48
2023-03-11T15:50:03.372Z,22.47
2023-03-11T15:52:29.675Z,22.45
2023-03-11T15:54:56.364Z,22.41
2023-03-11T15:57:31.806Z,22.39
2023-03-11T15:59:58.864Z,22.36
2023-03-11T16:02:26.330Z,22.31
2023-03-11T16:04:52.738Z,22.28
2023-03-11T16:07:32.839Z,22.26
2023-03-11T16:10:05.050Z,22.26
2023-03-11T16:12:31.410Z,22.31
2023-03-11T16:14:57.724Z,22.34
2023-03-11T16:17:24.509Z,22.32
2023-03-11T16:19:50.821Z,22.29
2023-03-11T16:22:21.190Z,22.24
2023-03-11T16:24:48.107Z,22.26
2023-03-11T16:27:15.056Z,22.30
2023-03-11T16:29:41.473Z,22.31
2023-03-11T16:32:08.669Z,22.30
2023-03-11T16:34:34.985Z,22.27
2023-03-11T16:37:01.332Z,22.26
2023-03-11T16:39:27.740Z,22.19
2023-03-11T16:41:54.079Z,22.25
2023-03-11T16:44:20.388Z,22.29
2023-03-11T16:46:46.765Z,22.30
2023-03-11T16:49:13.229Z,22.31
2023-03-11T16:51:39.545Z,22.35
2023-03-11T16:54:06.213Z,22.33
2023-03-11T16:56:32.548Z,22.36
2023-03-11T16:58:58.884Z,22.38
2023-03-11T17:01:25.334Z,22.41
2023-03-11T17:03:52.556Z,22.46
2023-03-11T17:06:18.972Z,22.50
2023-03-11T17:08:48.933Z,22.52
2023-03-11T17:11:16.047Z,22.56
2023-03-11T17:13:42.535Z,22.52
2023-03-11T17:16:09.186Z,22.56
2023-03-11T17:18:35.551Z,22.52
2023-03-11T17:21:05.283Z,22.51
2023-03-11T17:23:31.600Z,22.53
2023-03-11T17:26:00.050Z,22.61
2023-03-11T17:28:26.971Z,22.45
2023-03-11T17:30:53.291Z,22.68
2023-03-11T17:33:19.611Z,22.73
2023-03-11T17:35:47.108Z,22.79
2023-03-11T17:38:16.326Z,22.85
2023-03-11T17:40:42.867Z,22.90
2023-03-11T17:43:09.690Z,23.11
2023-03-11T17:45:38.042Z,23.38
2023-03-11T17:48:04.436Z,23.35
2023-03-11T17:50:30.817Z,23.35
2023-03-11T17:52:57.152Z,23.39
2023-03-11T17:55:23.471Z,23.43
2023-03-11T17:57:49.793Z,23.52
2023-03-11T18:00:16.289Z,23.62
2023-03-11T18:02:42.673Z,23.86
2023-03-11T18:05:09.358Z,24.00
2023-03-11T18:07:38.833Z,24.06
2023-03-11T18:10:05.552Z,24.12
2023-03-11T18:12:31.918Z,24.09
2023-03-11T18:14:58.231Z,24.03
2023-03-11T18:17:24.587Z,24.06
2023-03-11T18:19:50.896Z,24.06
2023-03-11T18:22:17.274Z,24.09
2023-03-11T18:24:44.006Z,24.08
2023-03-11T18:27:10.403Z,23.94
2023-03-11T18:29:36.724Z,23.90
2023-03-11T18:32:03.155Z,23.94
2023-03-11T18:34:29.547Z,23.97
2023-03-11T18:36:55.870Z,24.00
2023-03-11T18:39:22.202Z,24.06
2023-03-11T18:41:48.510Z,24.05
2023-03-11T18:44:14.807Z,24.08
2023-03-11T18:46:42.394Z,24.15
2023-03-11T18:49:10.105Z,24.02
2023-03-11T18:51:36.468Z,23.95
2023-03-11T18:54:02.811Z,23.93
2023-03-11T18:56:31.095Z,23.93
2023-03-11T18:58:57.889Z,24.01
2023-03-11T19:01:24.263Z,23.96
2023-03-11T19:03:51.310Z,23.93
2023-03-11T19:06:17.676Z,23.99
2023-03-11T19:08:44.123Z,24.00
2023-03-11T19:11:10.845Z,23.97
2023-03-11T19:13:46.552Z,23.96
2023-03-11T19:16:13.602Z,23.96
2023-03-11T19:18:39.921Z,24.04
2023-03-11T19:21:06.514Z,24.06
2023-03-11T19:23:32.967Z,23.94
2023-03-11T19:26:03.686Z,23.90
2023-03-11T19:28:30.184Z,23.95
2023-03-11T19:30:57.050Z,23.85
2023-03-11T19:33:23.453Z,23.87
2023-03-11T19:35:56.493Z,23.87
2023-03-11T19:38:22.865Z,23.88
2023-03-11T19:40:59.552Z,23.85
2023-03-11T19:43:25.945Z,23.92
2023-03-11T19:45:52.370Z,23.97
2023-03-11T19:48:20.005Z,24.02
2023-03-11T19:50:49.894Z,23.96
2023-03-11T19:53:16.397Z,23.96
2023-03-11T19:55:44.145Z,23.86
2023-03-11T19:58:10.473Z,23.91
2023-03-11T20:00:36.859Z,23.96
2023-03-11T20:03:03.239Z,23.91
2023-03-11T20:05:29.597Z,23.88
2023-03-11T20:07:56.011Z,23.85
2023-03-11T20:10:22.355Z,23.84
2023-03-11T20:13:01.482Z,23.79
2023-03-11T20:15:28.517Z,23.77
2023-03-11T20:17:54.895Z,23.79
2023-03-11T20:20:21.788Z,23.74
2023-03-11T20:22:48.173Z,23.85
2023-03-11T20:25:15.994Z,23.82
2023-03-11T20:27:42.697Z,23.82
2023-03-11T20:30:09.267Z,23.80
2023-03-11T20:32:35.638Z,23.79
2023-03-11T20:35:02.017Z,23.73
2023-03-11T20:37:29.332Z,23.73
2023-03-11T20:39:55.669Z,23.68
2023-03-11T20:42:22.015Z,23.70
2023-03-11T20:44:52.020Z,23.69
2023-03-11T20:47:18.407Z,23.74
2023-03-11T20:49:44.806Z,23.79
2023-03-11T20:52:11.145Z,23.79
2023-03-11T20:54:37.705Z,23.81
2023-03-11T20:57:04.663Z,23.83
2023-03-11T20:59:31.063Z,24.05
2023-03-11T21:01:57.572Z,24.14
2023-03-11T21:04:24.502Z,24.21
2023-03-11T21:06:52.393Z,24.30
2023-03-11T21:09:18.809Z,24.37
2023-03-11T21:11:45.156Z,24.43
2023-03-11T21:14:13.860Z,24.50
2023-03-11T21:16:40.353Z,24.56
2023-03-11T21:19:08.725Z,24.52
2023-03-11T21:21:35.600Z,24.48
2023-03-11T21:24:02.213Z,24.46
2023-03-11T21:26:28.537Z,24.42
2023-03-11T21:28:55.039Z,24.42
2023-03-11T21:31:22.130Z,24.35
2023-03-11T21:33:48.713Z,24.33
2023-03-11T21:36:15.472Z,24.33
2023-03-11T21:38:41.953Z,24.33
2023-03-11T21:41:09.350Z,24.30
2023-03-11T21:43:35.851Z,24.30
2023-03-11T21:46:02.403Z,24.30
2023-03-11T21:48:28.983Z,24.32
2023-03-11T21:50:55.446Z,24.46
2023-03-11T21:53:21.901Z,24.42
2023-03-11T21:55:48.393Z,24.41
2023-03-11T21:58:14.909Z,24.46
2023-03-11T22:00:41.381Z,24.51
2023-03-11T22:03:07.803Z,24.54
2023-03-11T22:05:34.101Z,24.55
2023-03-11T22:08:00.444Z,24.61
2023-03-11T22:10:26.795Z,24.53
2023-03-11T22:12:53.476Z,24.47
2023-03-11T22:15:19.858Z,24.47
2023-03-11T22:17:46.390Z,24.45
2023-03-11T22:20:13.477Z,24.44
2023-03-11T22:22:39.929Z,24.39
2023-03-11T22:25:06.479Z,24.37
2023-03-11T22:27:32.862Z,24.35
2023-03-11T22:29:59.167Z,24.32
2023-03-11T22:32:25.601Z,24.36
2023-03-11T22:34:51.967Z,24.29
2023-03-11T22:37:18.283Z,24.34
2023-03-11T22:39:44.629Z,24.38
2023-03-11T22:42:11.004Z,24.40
2023-03-11T22:44:37.368Z,24.37
2023-03-11T22:47:03.687Z,24.38
2023-03-11T22:49:30.119Z,24.38
2023-03-11T22:51:56.423Z,24.37
2023-03-11T22:54:22.771Z,24.35
2023-03-11T22:56:49.110Z,24.34
2023-03-11T22:59:15.740Z,24.32
2023-03-11T23:01:42.405Z,24.29
2023-03-11T23:04:09.016Z,24.26
2023-03-11T23:06:35.363Z,24.21
2023-03-11T23:09:02.214Z,24.21
2023-03-11T23:11:28.537Z,24.18
2023-03-11T23:13:56.755Z,24.17
2023-03-11T23:16:23.275Z,24.14
2023-03-11T23:18:50.383Z,24.10
2023-03-11T23:21:17.660Z,24.10
2023-03-11T23:23:44.070Z,24.13
2023-03-11T23:26:10.495Z,23.90
2023-03-11T23:28:36.889Z,23.63
2023-03-11T23:31:04.245Z,23.51
2023-03-11T23:33:30.925Z,23.47
2023-03-11T23:36:00.976Z,23.42
2023-03-11T23:38:27.661Z,23.40
2023-03-11T23:40:53.985Z,23.37
2023-03-11T23:43:20.316Z,23.35
2023-03-11T23:45:46.665Z,23.32
2023-03-11T23:48:13.062Z,23.29
2023-03-11T23:50:39.676Z,23.26
2023-03-11T23:53:06.010Z,23.21
2023-03-11T23:55:32.360Z,23.18
2023-03-11T23:57:58.695Z,23.16
